Time;durP1;ratioP1;P1;durP2;ratioP2;P2;SDS_P1;SDS_P2;PMS_P1;PMS_P2;Temp;Humidity;BMP_temperature;BMP_pressure;BME280_temperature;BME280_humidity;BME280_pressure;Samples;Min_cycle;Max_cycle;Signal;HPM_P1;HPM_P2
2021/09/17 00:00:31;;;;;;;;;;;;;;;22.04;50.07;101750.94;2091761;28;831;-60
2021/09/17 00:01:32;;;;;;;;;;;;;;;22.02;50.18;101744.69;2091524;28;751;-60
2021/09/17 00:02:32;;;;;;;;;;;;;;;22.02;49.99;101748.25;2092204;28;853;-59
2021/09/17 00:03:32;;;;;;;;;;;;;;;22.04;49.48;101759.91;2092084;28;1039;-60
2021/09/17 00:04:32;;;;;;;;;;;;;;;22.04;50.00;101756.31;2092171;28;814;-60
2021/09/17 00:05:32;;;;;;;;;;;;;;;22.05;50.01;101752.72;2092084;28;854;-59
2021/09/17 00:06:33;;;;;;;;;;;;;;;22.02;50.00;101750.09;2091971;28;1008;-60
2021/09/17 00:07:33;;;;;;;;;;;;;;;22.02;49.38;101756.34;2092111;28;829;-60
2021/09/17 00:08:33;;;;;;;;;;;;;;;22.05;49.81;101752.72;2091999;28;961;-59
2021/09/17 00:09:33;;;;;;;;;;;;;;;22.03;50.05;101752.72;2091811;28;1016;-59
2021/09/17 00:10:33;;;;;;;;;;;;;;;22.02;50.13;101750.97;2083087;28;695;-60
2021/09/17 00:11:34;;;;;;;;;;;;;;;22.01;49.60;101745.63;2083063;28;891;-59
2021/09/17 00:12:34;;;;;;;;;;;;;;;21.98;49.84;101753.78;2083268;28;961;-59
2021/09/17 00:13:35;;;;;;;;;;;;;;;21.99;49.71;101756.44;2093502;28;846;-59
2021/09/17 00:14:35;;;;;;;;;;;;;;;21.98;50.27;101751.97;2092133;28;1043;-60
2021/09/17 00:15:35;;;;;;;;;;;;;;;22.03;49.75;101750.03;2092027;28;748;-60
2021/09/17 00:16:35;;;;;;;;;;;;;;;21.99;50.11;101753.72;2091996;28;961;-60
2021/09/17 00:17:36;;;;;;;;;;;;;;;21.98;50.26;101749.25;2091843;28;1918;-59
2021/09/17 00:18:36;;;;;;;;;;;;;;;21.99;49.54;101753.72;2092025;28;795;-60
2021/09/17 00:19:36;;;;;;;;;;;;;;;21.97;49.79;101752.88;2091974;28;858;-59
2021/09/17 00:20:37;;;;;;;;;;;;;;;21.97;50.27;101750.19;2091952;28;973;-60
2021/09/17 00:21:37;;;;;;;;;;;;;;;21.98;50.30;101759.19;2091980;28;1001;-59
2021/09/17 00:22:37;;;;;;;;;;;;;;;21.96;50.36;101758.31;2091958;28;965;-59
2021/09/17 00:23:38;;;;;;;;;;;;;;;21.96;50.00;101753.81;2091954;28;1202;-59
2021/09/17 00:24:38;;;;;;;;;;;;;;;21.96;50.24;101753.81;2092076;28;1187;-60
2021/09/17 00:25:38;;;;;;;;;;;;;;;21.99;50.19;101758.25;2091777;28;1037;-60
2021/09/17 00:26:38;;;;;;;;;;;;;;;21.97;50.40;101754.72;2091929;28;1009;-60
2021/09/17 00:27:38;;;;;;;;;;;;;;;21.97;50.21;101755.56;2091932;28;668;-59
2021/09/17 00:28:38;;;;;;;;;;;;;;;21.97;50.05;101754.72;2091907;28;977;-60
2021/09/17 00:29:38;;;;;;;;;;;;;;;21.98;50.22;101753.78;2091963;28;766;-60
2021/09/17 00:30:39;;;;;;;;;;;;;;;21.98;49.83;101746.56;2091707;28;857;-59
2021/09/17 00:31:39;;;;;;;;;;;;;;;21.97;50.50;101744.78;2091853;28;961;-60
2021/09/17 00:32:40;;;;;;;;;;;;;;;21.99;49.70;101760.94;2091920;28;799;-59
2021/09/17 00:33:40;;;;;;;;;;;;;;;21.98;50.19;101756.47;2091736;28;1263;-60
2021/09/17 00:34:40;;;;;;;;;;;;;;;21.97;49.51;101758.28;2082993;28;895;-59
2021/09/17 00:35:40;;;;;;;;;;;;;;;21.97;49.71;101760.09;2083638;28;1020;-60
2021/09/17 00:36:40;;;;;;;;;;;;;;;21.95;50.24;101757.44;2091835;28;914;-60
2021/09/17 00:37:40;;;;;;;;;;;;;;;21.96;50.02;101751.09;2091770;28;1910;-58
2021/09/17 00:38:40;;;;;;;;;;;;;;;21.97;50.25;101738.53;2091545;28;843;-59
2021/09/17 00:39:41;;;;;;;;;;;;;;;21.95;49.92;101746.63;2091805;28;775;-60
2021/09/17 00:40:42;;;;;;;;;;;;;;;21.96;50.01;101747.53;2091888;28;913;-60
2021/09/17 00:41:43;;;;;;;;;;;;;;;21.95;50.05;101749.34;2091753;28;850;-60
2021/09/17 00:42:43;;;;;;;;;;;;;;;21.96;50.16;101750.25;2091821;28;918;-59
2021/09/17 00:43:43;;;;;;;;;;;;;;;21.96;50.37;101748.41;2091795;28;796;-60
2021/09/17 00:44:43;;;;;;;;;;;;;;;21.92;50.53;101754.81;2091804;28;918;-60
2021/09/17 00:45:44;;;;;;;;;;;;;;;21.94;49.70;101752.09;2091778;28;973;-59
2021/09/17 00:46:44;;;;;;;;;;;;;;;21.94;50.24;101760.19;2091587;28;783;-60
2021/09/17 00:47:45;;;;;;;;;;;;;;;21.95;49.87;101760.13;2091636;28;970;-59
2021/09/17 00:48:45;;;;;;;;;;;;;;;21.95;49.37;101760.13;2091853;28;779;-60
2021/09/17 00:49:46;;;;;;;;;;;;;;;21.94;50.39;101760.19;2091783;28;798;-59
2021/09/17 00:50:46;;;;;;;;;;;;;;;21.93;49.84;101753.88;2091684;28;1040;-59
2021/09/17 00:51:46;;;;;;;;;;;;;;;21.92;50.01;101758.41;2091672;28;1004;-60
2021/09/17 00:52:46;;;;;;;;;;;;;;;21.93;50.30;101756.56;2091353;28;1347;-59
2021/09/17 00:53:47;;;;;;;;;;;;;;;21.94;50.09;101760.19;2091725;28;1056;-59
2021/09/17 00:54:47;;;;;;;;;;;;;;;21.93;49.73;101748.47;2091728;28;985;-60
2021/09/17 00:55:47;;;;;;;;;;;;;;;21.93;49.74;101753.88;2091737;28;984;-60
2021/09/17 00:56:47;;;;;;;;;;;;;;;21.94;50.09;101752.09;2092450;28;854;-60
2021/09/17 00:57:48;;;;;;;;;;;;;;;21.90;50.66;101754.84;2092237;28;1890;-59
2021/09/17 00:58:48;;;;;;;;;;;;;;;21.89;50.63;101758.47;2091773;28;1020;-59
2021/09/17 00:59:48;;;;;;;;;;;;;;;21.92;49.71;101754.81;2091663;28;759;-60
2021/09/17 01:00:48;;;;;;;;;;;;;;;21.89;50.66;101758.47;2091508;28;1001;-59
2021/09/17 01:01:48;;;;;;;;;;;;;;;21.91;49.99;101755.72;2091687;28;1186;-60
2021/09/17 01:02:49;;;;;;;;;;;;;;;21.91;49.80;101758.44;2091729;28;1332;-59
2021/09/17 01:03:49;;;;;;;;;;;;;;;21.91;50.31;101756.63;2091580;28;1028;-59
2021/09/17 01:04:49;;;;;;;;;;;;;;;21.88;50.33;101758.50;2091626;28;771;-60
2021/09/17 01:05:49;;;;;;;;;;;;;;;21.90;49.92;101762.03;2091380;28;877;-59
2021/09/17 01:06:50;;;;;;;;;;;;;;;21.89;50.28;101758.47;2091658;28;862;-60
2021/09/17 01:07:51;;;;;;;;;;;;;;;21.89;50.48;101762.97;2091614;28;803;-59
2021/09/17 01:08:51;;;;;;;;;;;;;;;21.89;50.05;101766.56;2091656;28;1032;-59
2021/09/17 01:09:52;;;;;;;;;;;;;;;21.91;50.12;101761.13;2091613;28;907;-59
2021/09/17 01:10:52;;;;;;;;;;;;;;;21.87;50.37;101757.63;2091472;28;1106;-60
2021/09/17 01:11:52;;;;;;;;;;;;;;;21.89;50.37;101757.56;2091533;28;977;-59
2021/09/17 01:12:53;;;;;;;;;;;;;;;21.89;50.42;101760.28;2091523;28;858;-60
2021/09/17 01:13:55;;;;;;;;;;;;;;;21.88;50.15;101754.00;2091343;28;1032;-59
2021/09/17 01:14:55;;;;;;;;;;;;;;;21.88;49.85;101755.81;2091608;28;863;-60
2021/09/17 01:15:55;;;;;;;;;;;;;;;21.91;50.18;101766.50;2082730;28;1312;-60
2021/09/17 01:16:55;;;;;;;;;;;;;;;21.88;50.51;101755.81;2082547;28;914;-59
2021/09/17 01:17:56;;;;;;;;;;;;;;;21.89;50.52;101757.56;2091374;28;1886;-59
2021/09/17 01:18:56;;;;;;;;;;;;;;;21.88;49.86;101759.41;2091611;28;985;-59
2021/09/17 01:19:56;;;;;;;;;;;;;;;21.85;50.58;101755.88;2091605;28;764;-60
2021/09/17 01:21:00;;;;;;;;;;;;;;;21.89;50.04;101749.47;2091930;28;883;-59
2021/09/17 01:22:01;;;;;;;;;;;;;;;21.89;49.97;101747.69;2091685;28;999;-59
2021/09/17 01:23:01;;;;;;;;;;;;;;;21.88;50.27;101743.22;2089595;28;1170;-60
2021/09/17 01:24:02;;;;;;;;;;;;;;;21.88;49.85;101751.31;2083330;28;842;-60
2021/09/17 01:25:04;;;;;;;;;;;;;;;21.85;50.55;101748.69;2083265;28;1044;-59
2021/09/17 01:26:04;;;;;;;;;;;;;;;21.86;50.29;101744.16;2083214;28;1101;-60
2021/09/17 01:27:04;;;;;;;;;;;;;;;21.88;49.80;101747.72;2083262;28;891;-59
2021/09/17 01:28:05;;;;;;;;;;;;;;;21.87;50.14;101746.84;2083292;28;1040;-60
2021/09/17 01:29:05;;;;;;;;;;;;;;;21.88;50.16;101747.72;2083295;28;814;-60
2021/09/17 01:30:06;;;;;;;;;;;;;;;21.89;50.01;101744.09;2083024;28;891;-59
2021/09/17 01:31:06;;;;;;;;;;;;;;;21.87;50.32;101738.75;2082904;28;1115;-59
2021/09/17 01:32:06;;;;;;;;;;;;;;;21.86;50.64;101741.47;2083199;28;1056;-60
2021/09/17 01:33:06;;;;;;;;;;;;;;;21.86;49.93;101741.47;2083000;28;1302;-59
2021/09/17 01:34:07;;;;;;;;;;;;;;;21.85;50.58;101742.38;2083131;28;878;-60
2021/09/17 01:35:09;;;;;;;;;;;;;;;21.87;49.53;101744.13;2083256;28;760;-60
2021/09/17 01:36:09;;;;;;;;;;;;;;;21.85;50.54;101742.38;2082932;28;835;-59
2021/09/17 01:37:10;;;;;;;;;;;;;;;21.85;50.57;101734.28;2083184;28;1918;-60
2021/09/17 01:38:10;;;;;;;;;;;;;;;21.89;49.96;101736.00;2084097;28;989;-59
2021/09/17 01:39:10;;;;;;;;;;;;;;;21.84;50.70;101737.91;2083698;28;1083;-60
2021/09/17 01:40:11;;;;;;;;;;;;;;;21.84;50.36;101728.03;2083204;28;989;-59
2021/09/17 01:41:11;;;;;;;;;;;;;;;21.86;50.03;101736.06;2083201;28;1070;-60
2021/09/17 01:42:11;;;;;;;;;;;;;;;21.88;49.76;101734.22;2083210;28;788;-59
2021/09/17 01:43:11;;;;;;;;;;;;;;;21.82;50.17;101728.97;2083259;28;922;-59
2021/09/17 01:44:12;;;;;;;;;;;;;;;21.82;49.88;101724.47;2083122;28;969;-60
2021/09/17 01:45:12;;;;;;;;;;;;;;;21.86;50.03;101734.28;2083224;28;883;-60
2021/09/17 01:46:13;;;;;;;;;;;;;;;21.85;49.80;101729.81;2083180;28;858;-59
2021/09/17 01:47:13;;;;;;;;;;;;;;;21.86;49.86;101736.06;2082789;28;993;-59
2021/09/17 01:48:13;;;;;;;;;;;;;;;21.85;50.30;101728.91;2083145;28;1037;-59
2021/09/17 01:49:13;;;;;;;;;;;;;;;21.85;50.30;101729.81;2083130;28;821;-60
2021/09/17 01:50:13;;;;;;;;;;;;;;;21.86;50.31;101738.78;2082959;28;993;-60
2021/09/17 01:51:14;;;;;;;;;;;;;;;21.85;49.49;101735.19;2083145;28;925;-59
2021/09/17 01:52:14;;;;;;;;;;;;;;;21.86;50.02;101738.78;2083012;28;1044;-60
2021/09/17 01:53:14;;;;;;;;;;;;;;;21.84;50.08;101735.22;2082860;28;780;-59
2021/09/17 01:54:14;;;;;;;;;;;;;;;21.81;49.89;101733.50;2083095;28;969;-60
2021/09/17 01:55:14;;;;;;;;;;;;;;;21.81;49.90;101736.19;2083196;28;847;-59
2021/09/17 01:56:14;;;;;;;;;;;;;;;21.85;49.67;101740.59;2083144;28;911;-60
2021/09/17 01:57:15;;;;;;;;;;;;;;;21.84;50.30;101737.91;2083227;28;1898;-59
2021/09/17 01:58:15;;;;;;;;;;;;;;;21.85;50.22;101732.50;2082806;28;779;-59
2021/09/17 01:59:15;;;;;;;;;;;;;;;21.83;50.45;101737.03;2074375;28;1297;-59
2021/09/17 02:00:15;;;;;;;;;;;;;;;21.83;49.49;101734.34;2074704;28;1049;-59
2021/09/17 02:01:16;;;;;;;;;;;;;;;21.84;50.45;101735.22;2083031;28;914;-60
2021/09/17 02:02:16;;;;;;;;;;;;;;;21.83;50.20;101734.34;2083148;28;962;-60
2021/09/17 02:03:16;;;;;;;;;;;;;;;21.82;49.72;101728.97;2083036;28;772;-60
2021/09/17 02:04:17;;;;;;;;;;;;;;;21.80;50.55;101736.22;2082974;28;852;-59
2021/09/17 02:05:17;;;;;;;;;;;;;;;21.82;50.49;101737.06;2083181;28;803;-59
2021/09/17 02:06:21;;;;;;;;;;;;;;;21.82;50.56;101734.38;2083091;28;1131;-59
2021/09/17 02:07:21;;;;;;;;;;;;;;;21.81;50.47;101730.81;2082961;28;768;-60
2021/09/17 02:08:22;;;;;;;;;;;;;;;21.83;50.28;101728.06;2083111;28;854;-59
2021/09/17 02:09:22;;;;;;;;;;;;;;;21.80;50.65;101739.81;2082999;28;819;-60
2021/09/17 02:10:22;;;;;;;;;;;;;;;21.82;50.41;101735.28;2082808;28;1009;-59
2021/09/17 02:11:23;;;;;;;;;;;;;;;21.82;50.32;101729.88;2083030;28;945;-60
2021/09/17 02:12:23;;;;;;;;;;;;;;;21.82;49.97;101728.97;2083071;28;1053;-59
2021/09/17 02:13:23;;;;;;;;;;;;;;;21.83;50.28;101728.06;2083039;28;764;-59
2021/09/17 02:14:23;;;;;;;;;;;;;;;21.80;49.82;101737.13;2083173;28;744;-59
2021/09/17 02:15:24;;;;;;;;;;;;;;;21.80;50.84;101730.81;2083043;28;958;-59
2021/09/17 02:16:24;;;;;;;;;;;;;;;21.83;49.42;101728.06;2083121;28;792;-60
2021/09/17 02:17:26;;;;;;;;;;;;;;;21.83;50.19;101734.34;2083046;28;1890;-60
2021/09/17 02:18:26;;;;;;;;;;;;;;;21.82;49.77;101734.38;2083028;28;811;-59
2021/09/17 02:19:26;;;;;;;;;;;;;;;21.82;50.11;101734.38;2083155;28;764;-59
2021/09/17 02:20:26;;;;;;;;;;;;;;;21.81;50.19;101733.50;2083122;28;843;-60
2021/09/17 02:21:26;;;;;;;;;;;;;;;21.81;50.48;101735.28;2083597;28;965;-59
2021/09/17 02:22:27;;;;;;;;;;;;;;;21.83;49.81;101736.16;2083016;28;925;-59
2021/09/17 02:23:27;;;;;;;;;;;;;;;21.83;49.67;101737.03;2088064;28;1166;-59
2021/09/17 02:24:27;;;;;;;;;;;;;;;21.82;49.77;101734.38;2092032;28;973;-60
2021/09/17 02:25:27;;;;;;;;;;;;;;;21.83;50.25;101746.94;2083980;28;1372;-59
2021/09/17 02:26:27;;;;;;;;;;;;;;;21.82;50.01;101740.66;2084058;28;886;-59
2021/09/17 02:27:27;;;;;;;;;;;;;;;21.82;50.41;101740.66;2092847;28;1008;-59
2021/09/17 02:28:27;;;;;;;;;;;;;;;21.80;50.47;101736.22;2092936;28;985;-59
2021/09/17 02:29:28;;;;;;;;;;;;;;;21.82;50.33;101737.06;2092884;28;1000;-60
2021/09/17 02:30:28;;;;;;;;;;;;;;;21.82;49.66;101731.66;2092894;28;933;-59
2021/09/17 02:31:28;;;;;;;;;;;;;;;21.82;49.84;101735.28;2092567;28;961;-60
2021/09/17 02:32:28;;;;;;;;;;;;;;;21.81;50.35;101735.28;2092746;28;1001;-59
2021/09/17 02:33:28;;;;;;;;;;;;;;;21.79;50.41;101737.13;2092677;28;1183;-60
2021/09/17 02:34:29;;;;;;;;;;;;;;;21.81;50.36;101738.91;2092779;28;930;-60
2021/09/17 02:35:29;;;;;;;;;;;;;;;21.84;49.57;101733.44;2092900;28;1140;-60
2021/09/17 02:36:29;;;;;;;;;;;;;;;21.81;50.47;101738.00;2092850;28;960;-59
2021/09/17 02:37:29;;;;;;;;;;;;;;;21.81;50.50;101729.91;2092561;28;1918;-59
2021/09/17 02:38:29;;;;;;;;;;;;;;;21.81;50.47;101729.91;2092722;28;1048;-59
2021/09/17 02:39:29;;;;;;;;;;;;;;;21.79;50.60;101734.44;2092828;28;1001;-60
2021/09/17 02:40:30;;;;;;;;;;;;;;;21.79;49.95;101738.03;2092828;28;829;-60
2021/09/17 02:41:31;;;;;;;;;;;;;;;21.78;49.57;101728.19;2083964;28;1332;-60
2021/09/17 02:42:31;;;;;;;;;;;;;;;21.81;50.04;101729.91;2084840;28;1036;-59
2021/09/17 02:43:31;;;;;;;;;;;;;;;21.77;49.93;101727.31;2092551;28;922;-60
2021/09/17 02:44:32;;;;;;;;;;;;;;;21.79;50.69;101735.34;2092728;28;949;-60
2021/09/17 02:45:32;;;;;;;;;;;;;;;21.80;49.92;101725.44;2092692;28;870;-59
2021/09/17 02:46:32;;;;;;;;;;;;;;;21.77;49.92;101727.31;2092754;28;1008;-60
2021/09/17 02:47:32;;;;;;;;;;;;;;;21.80;50.47;101720.94;2092834;28;802;-59
2021/09/17 02:48:33;;;;;;;;;;;;;;;21.80;50.44;101725.44;2083742;28;1024;-60
2021/09/17 02:49:33;;;;;;;;;;;;;;;21.80;49.89;101725.44;2083895;28;854;-59
2021/09/17 02:50:34;;;;;;;;;;;;;;;21.79;50.82;101731.75;2092681;28;799;-60
2021/09/17 02:51:34;;;;;;;;;;;;;;;21.77;50.33;101721.91;2092562;28;865;-59
2021/09/17 02:52:34;;;;;;;;;;;;;;;21.76;50.25;101673.41;2092719;28;1024;-59
2021/09/17 02:53:34;;;;;;;;;;;;;;;21.76;50.49;101670.69;2092610;28;771;-59
2021/09/17 02:54:34;;;;;;;;;;;;;;;21.81;49.69;101665.16;2092577;28;790;-60
2021/09/17 02:55:34;;;;;;;;;;;;;;;21.80;49.89;101669.69;2092658;28;997;-60
2021/09/17 02:56:34;;;;;;;;;;;;;;;21.83;50.27;101663.31;2092584;28;833;-59
2021/09/17 02:57:35;;;;;;;;;;;;;;;21.80;49.83;101656.22;2092603;28;1898;-59
2021/09/17 02:58:36;;;;;;;;;;;;;;;21.80;50.40;101656.22;2092650;28;870;-60
2021/09/17 02:59:36;;;;;;;;;;;;;;;21.82;49.81;101711.00;2092545;28;811;-60
2021/09/17 03:00:39;;;;;;;;;;;;;;;21.82;49.74;101754.16;2092667;28;973;-60
2021/09/17 03:01:39;;;;;;;;;;;;;;;21.78;50.67;101733.56;2092556;28;838;-60
2021/09/17 03:02:39;;;;;;;;;;;;;;;21.77;50.31;101727.31;2092579;28;830;-59
2021/09/17 03:03:39;;;;;;;;;;;;;;;21.78;50.63;101720.09;2083802;28;819;-60
2021/09/17 03:04:40;;;;;;;;;;;;;;;21.79;50.08;101723.66;2083668;28;1055;-59
2021/09/17 03:05:40;;;;;;;;;;;;;;;21.80;50.14;101722.72;2093290;28;948;-60
2021/09/17 03:06:40;;;;;;;;;;;;;;;21.81;50.38;101719.09;2092876;28;1068;-59
2021/09/17 03:07:40;;;;;;;;;;;;;;;21.81;50.44;101727.19;2092548;28;993;-59
2021/09/17 03:08:40;;;;;;;;;;;;;;;21.79;49.72;101718.25;2092649;28;1028;-59
2021/09/17 03:09:41;;;;;;;;;;;;;;;21.77;50.41;101724.63;2092588;28;940;-60
2021/09/17 03:10:41;;;;;;;;;;;;;;;21.80;50.13;101730.81;2092584;28;1008;-60
2021/09/17 03:11:41;;;;;;;;;;;;;;;21.78;49.91;101714.69;2092465;28;1039;-60
2021/09/17 03:12:41;;;;;;;;;;;;;;;21.80;50.07;101703.84;2092551;28;838;-59
2021/09/17 03:13:41;;;;;;;;;;;;;;;21.81;49.82;101711.91;2092523;28;881;-60
2021/09/17 03:14:41;;;;;;;;;;;;;;;21.80;50.43;101704.75;2092602;28;759;-60
2021/09/17 03:15:41;;;;;;;;;;;;;;;21.80;49.46;101704.75;2092337;28;874;-59
2021/09/17 03:16:42;;;;;;;;;;;;;;;21.77;49.87;101708.44;2092537;28;989;-60
2021/09/17 03:17:42;;;;;;;;;;;;;;;21.79;49.64;101708.38;2092296;28;1893;-59
2021/09/17 03:18:42;;;;;;;;;;;;;;;21.78;49.84;101712.00;2092492;28;767;-60
2021/09/17 03:19:42;;;;;;;;;;;;;;;21.79;50.36;101704.78;2092503;28;976;-59
2021/09/17 03:20:44;;;;;;;;;;;;;;;21.81;50.42;101705.63;2092502;28;819;-60
2021/09/17 03:21:44;;;;;;;;;;;;;;;21.82;50.03;101707.41;2092566;28;823;-60
2021/09/17 03:22:45;;;;;;;;;;;;;;;21.79;50.42;101708.38;2092400;28;901;-59
2021/09/17 03:23:45;;;;;;;;;;;;;;;21.84;49.78;101695.66;2092107;28;1463;-59
2021/09/17 03:24:45;;;;;;;;;;;;;;;21.80;49.91;101698.47;2092462;28;1037;-59
2021/09/17 03:25:46;;;;;;;;;;;;;;;21.82;49.80;101696.59;2092410;28;1120;-60
2021/09/17 03:26:46;;;;;;;;;;;;;;;21.82;49.97;101694.81;2092190;28;705;-60
2021/09/17 03:27:46;;;;;;;;;;;;;;;21.84;50.24;101689.38;2092402;28;921;-59
2021/09/17 03:28:46;;;;;;;;;;;;;;;21.85;50.16;101697.44;2093465;28;1036;-59
2021/09/17 03:29:46;;;;;;;;;;;;;;;21.83;50.62;101695.69;2092587;28;1116;-60
2021/09/17 03:30:47;;;;;;;;;;;;;;;21.86;50.23;101695.59;2092444;28;855;-60
2021/09/17 03:31:47;;;;;;;;;;;;;;;21.87;50.29;101700.97;2092308;28;993;-60
2021/09/17 03:32:47;;;;;;;;;;;;;;;21.88;50.04;101691.06;2092363;28;830;-59
2021/09/17 03:33:47;;;;;;;;;;;;;;;21.86;50.23;101698.31;2092156;28;1232;-60
2021/09/17 03:34:47;;;;;;;;;;;;;;;21.84;50.62;101701.06;2092347;28;1024;-59
2021/09/17 03:35:48;;;;;;;;;;;;;;;21.89;49.64;101693.75;2091370;28;714;-60
2021/09/17 03:36:48;;;;;;;;;;;;;;;21.89;50.40;101698.22;2092079;28;847;-60
2021/09/17 03:37:48;;;;;;;;;;;;;;;21.88;49.50;101697.38;2092282;28;1909;-60
2021/09/17 03:38:48;;;;;;;;;;;;;;;21.88;50.56;101704.56;2092380;28;716;-60
2021/09/17 03:39:49;;;;;;;;;;;;;;;21.91;49.58;101702.69;2092301;28;862;-59
2021/09/17 03:40:50;;;;;;;;;;;;;;;21.91;49.92;101702.69;2092322;28;977;-60
2021/09/17 03:41:50;;;;;;;;;;;;;;;21.89;50.37;101699.13;2092128;28;851;-60
2021/09/17 03:42:50;;;;;;;;;;;;;;;21.92;50.17;101698.16;2092180;28;1331;-60
2021/09/17 03:43:50;;;;;;;;;;;;;;;21.94;49.56;101704.41;2092196;28;1365;-60
2021/09/17 03:44:51;;;;;;;;;;;;;;;21.93;50.18;101702.63;2092010;28;978;-61
2021/09/17 03:45:51;;;;;;;;;;;;;;;21.94;49.95;101703.53;2092289;28;721;-60
2021/09/17 03:46:51;;;;;;;;;;;;;;;21.96;50.25;101704.38;2092289;28;828;-61
2021/09/17 03:47:51;;;;;;;;;;;;;;;21.96;49.54;101709.78;2092135;28;922;-60
2021/09/17 03:48:52;;;;;;;;;;;;;;;21.94;49.95;101711.63;2092664;28;879;-60
2021/09/17 03:49:52;;;;;;;;;;;;;;;21.95;49.51;101705.31;2092267;28;779;-59
2021/09/17 03:50:52;;;;;;;;;;;;;;;21.94;49.74;101703.53;2092044;28;907;-59
2021/09/17 03:51:52;;;;;;;;;;;;;;;21.92;49.80;101712.53;2092213;28;807;-60
2021/09/17 03:52:52;;;;;;;;;;;;;;;21.91;49.81;101713.47;2092146;28;852;-60
2021/09/17 03:53:52;;;;;;;;;;;;;;;21.94;50.31;101708.91;2092202;28;784;-60
2021/09/17 03:54:53;;;;;;;;;;;;;;;21.90;50.12;101708.09;2092161;28;843;-59
2021/09/17 03:55:53;;;;;;;;;;;;;;;21.93;49.47;101713.41;2092063;28;1028;-59
2021/09/17 03:56:57;;;;;;;;;;;;;;;21.91;50.32;101712.56;2092232;28;997;-59
2021/09/17 03:57:57;;;;;;;;;;;;;;;21.94;50.22;101712.50;2092140;28;1953;-59
2021/09/17 03:58:57;;;;;;;;;;;;;;;21.92;49.80;101714.34;2091785;28;883;-60
2021/09/17 03:59:57;;;;;;;;;;;;;;;21.92;49.96;101707.16;2092166;28;965;-59
2021/09/17 04:00:57;;;;;;;;;;;;;;;21.89;50.05;101715.31;2092236;28;783;-60
2021/09/17 04:02:00;;;;;;;;;;;;;;;21.93;50.16;101708.03;2092190;28;772;-59
2021/09/17 04:03:01;;;;;;;;;;;;;;;22.17;49.74;101711.88;2092220;28;882;-59
2021/09/17 04:04:01;;;;;;;;;;;;;;;22.45;49.23;101707.59;2091960;28;1005;-59
2021/09/17 04:05:01;;;;;;;;;;;;;;;22.58;47.93;101717.13;2092118;28;998;-59
2021/09/17 04:06:01;;;;;;;;;;;;;;;22.66;48.28;101716.94;2092145;28;842;-59
2021/09/17 04:07:01;;;;;;;;;;;;;;;22.72;47.79;101710.44;2082997;28;914;-60
2021/09/17 04:08:02;;;;;;;;;;;;;;;22.76;47.83;101712.13;2083164;28;764;-60
2021/09/17 04:09:02;;;;;;;;;;;;;;;22.82;47.26;101711.97;2092131;28;1019;-60
2021/09/17 04:10:02;;;;;;;;;;;;;;;22.85;47.20;101706.47;2092081;28;1036;-59
2021/09/17 04:11:02;;;;;;;;;;;;;;;22.89;47.33;101708.16;2093205;28;1138;-60
2021/09/17 04:12:03;;;;;;;;;;;;;;;22.97;46.73;101709.72;2092093;28;883;-60
2021/09/17 04:13:03;;;;;;;;;;;;;;;22.99;46.98;101715.94;2092034;28;882;-59
2021/09/17 04:14:04;;;;;;;;;;;;;;;23.01;47.55;101714.09;2092032;28;866;-60
2021/09/17 04:15:04;;;;;;;;;;;;;;;23.02;47.02;101716.75;2083150;28;1029;-59
2021/09/17 04:16:04;;;;;;;;;;;;;;;23.06;47.62;101712.13;2083159;28;1363;-60
2021/09/17 04:17:04;;;;;;;;;;;;;;;23.08;47.16;101715.69;2091878;28;1959;-59
2021/09/17 04:18:04;;;;;;;;;;;;;;;23.10;46.73;101712.03;2091787;28;988;-59
2021/09/17 04:19:05;;;;;;;;;;;;;;;23.14;46.94;101712.78;2092035;28;802;-59
2021/09/17 04:20:05;;;;;;;;;;;;;;;23.15;47.40;101722.69;2091959;28;831;-59
2021/09/17 04:21:05;;;;;;;;;;;;;;;23.15;47.38;101714.56;2082957;28;1173;-60
2021/09/17 04:22:06;;;;;;;;;;;;;;;23.17;46.82;101718.09;2083151;28;1023;-59
2021/09/17 04:23:06;;;;;;;;;;;;;;;23.21;46.63;101721.63;2089716;28;1328;-60
2021/09/17 04:24:06;;;;;;;;;;;;;;;23.21;47.30;101721.63;2083527;28;1396;-60
2021/09/17 04:25:07;;;;;;;;;;;;;;;23.23;47.13;101717.97;2083757;28;907;-60
2021/09/17 04:26:07;;;;;;;;;;;;;;;23.25;46.83;101720.63;2083707;28;986;-60
2021/09/17 04:27:08;;;;;;;;;;;;;;;23.24;47.68;101719.72;2083269;28;788;-59
2021/09/17 04:28:08;;;;;;;;;;;;;;;23.28;46.90;101714.22;2083343;28;977;-59
2021/09/17 04:29:08;;;;;;;;;;;;;;;23.29;47.47;101726.81;2083735;28;756;-60
2021/09/17 04:30:08;;;;;;;;;;;;;;;23.27;47.17;101721.44;2083749;28;1033;-60
2021/09/17 04:31:08;;;;;;;;;;;;;;;23.31;47.41;101724.94;2083779;28;804;-61
2021/09/17 04:32:09;;;;;;;;;;;;;;;23.30;47.65;101720.47;2083517;28;977;-59
2021/09/17 04:33:14;;;;;;;;;;;;;;;23.33;47.53;101721.25;2083551;28;1353;-59
2021/09/17 04:34:14;;;;;;;;;;;;;;;23.32;47.21;101718.59;2084090;28;854;-60
2021/09/17 04:35:15;;;;;;;;;;;;;;;23.35;46.96;101722.09;2083804;28;808;-60
2021/09/17 04:36:15;;;;;;;;;;;;;;;23.35;46.93;101721.22;2083711;28;826;-60
2021/09/17 04:37:16;;;;;;;;;;;;;;;23.36;47.67;101721.16;2083414;28;1990;-59
2021/09/17 04:38:16;;;;;;;;;;;;;;;23.40;46.99;101730.06;2083573;28;1159;-60
2021/09/17 04:39:16;;;;;;;;;;;;;;;23.36;47.06;101720.28;2074855;28;1036;-59
2021/09/17 04:40:16;;;;;;;;;;;;;;;23.36;48.16;101723.00;2074720;28;934;-60
2021/09/17 04:41:17;;;;;;;;;;;;;;;23.38;47.69;101721.13;2083381;28;815;-60
2021/09/17 04:42:18;;;;;;;;;;;;;;;23.38;46.91;101719.28;2083571;28;827;-60
2021/09/17 04:43:18;;;;;;;;;;;;;;;23.41;47.24;101721.03;2083569;28;854;-59
2021/09/17 04:44:18;;;;;;;;;;;;;;;23.39;47.54;101725.59;2083594;28;827;-59
2021/09/17 04:45:19;;;;;;;;;;;;;;;23.41;47.92;101731.84;2083647;28;855;-60
2021/09/17 04:46:19;;;;;;;;;;;;;;;23.38;47.79;101731.94;2083263;28;883;-60
2021/09/17 04:47:19;;;;;;;;;;;;;;;23.40;47.44;101724.66;2083192;28;761;-59
2021/09/17 04:48:19;;;;;;;;;;;;;;;23.41;47.28;101730.94;2083609;28;898;-60
2021/09/17 04:49:19;;;;;;;;;;;;;;;23.39;47.79;101728.28;2074853;28;1219;-60
2021/09/17 04:50:19;;;;;;;;;;;;;;;23.41;47.48;101731.84;2074860;28;888;-59
2021/09/17 04:51:19;;;;;;;;;;;;;;;23.39;47.36;101733.72;2083355;28;1074;-60
2021/09/17 04:52:21;;;;;;;;;;;;;;;23.37;47.43;101739.16;2083380;28;1002;-60
2021/09/17 04:53:23;;;;;;;;;;;;;;;23.38;47.31;101734.63;2083583;28;859;-60
2021/09/17 04:54:23;;;;;;;;;;;;;;;23.39;47.57;101736.41;2074566;28;1236;-59
2021/09/17 04:55:24;;;;;;;;;;;;;;;23.41;47.41;101734.53;2074822;28;768;-60
2021/09/17 04:56:24;;;;;;;;;;;;;;;23.38;47.14;101735.50;2084145;28;989;-59
2021/09/17 04:57:24;;;;;;;;;;;;;;;23.39;47.64;101733.72;2083091;28;1971;-59
2021/09/17 04:58:25;;;;;;;;;;;;;;;23.37;47.05;101738.28;2083478;28;953;-60
2021/09/17 04:59:25;;;;;;;;;;;;;;;23.38;47.04;101740.03;2083420;28;850;-59
2021/09/17 05:00:26;;;;;;;;;;;;;;;23.39;46.69;101733.72;2083445;28;962;-60
2021/09/17 05:01:26;;;;;;;;;;;;;;;23.38;46.98;101735.50;2083458;28;692;-60
2021/09/17 05:02:26;;;;;;;;;;;;;;;23.41;46.72;101737.25;2083414;28;744;-59
2021/09/17 05:03:26;;;;;;;;;;;;;;;23.41;46.70;101745.34;2083129;28;784;-59
2021/09/17 05:04:26;;;;;;;;;;;;;;;23.41;46.95;101741.75;2083472;28;847;-59
2021/09/17 05:05:26;;;;;;;;;;;;;;;23.39;46.96;101741.81;2083463;28;787;-60
2021/09/17 05:06:30;;;;;;;;;;;;;;;23.41;46.89;101747.16;2083419;28;841;-59
2021/09/17 05:07:34;;;;;;;;;;;;;;;23.42;46.64;101740.81;2083371;28;815;-59
2021/09/17 05:08:34;;;;;;;;;;;;;;;23.41;47.43;101737.25;2074457;28;879;-60
2021/09/17 05:09:34;;;;;;;;;;;;;;;23.41;47.10;101739.94;2074651;28;863;-60
2021/09/17 05:10:34;;;;;;;;;;;;;;;23.43;46.80;101745.28;2083310;28;764;-60
2021/09/17 05:11:35;;;;;;;;;;;;;;;23.39;46.82;101737.28;2083138;28;931;-59
2021/09/17 05:12:35;;;;;;;;;;;;;;;23.41;46.95;101742.66;2083181;28;851;-60
2021/09/17 05:13:35;;;;;;;;;;;;;;;23.42;47.21;101736.31;2083357;28;887;-60
2021/09/17 05:14:35;;;;;;;;;;;;;;;23.43;47.27;101745.28;2083219;28;1444;-60
2021/09/17 05:15:35;;;;;;;;;;;;;;;23.43;47.45;101737.19;2089975;28;1446;-60
2021/09/17 05:16:36;;;;;;;;;;;;;;;23.44;47.21;101742.56;2090798;28;2644;-59